SBRF Airport Information

Runway Information
Runway 18 Length 9865 ft width 148 ft
Elevation 23 ft Threshold 0 ft Heading 162
Runway 36 Length 9865 ft Width 148 ft
Elevation 32 ft Threshold 0 ft Heading 342
Airport Frequencies
Type APP Name RECIFE APP Frequency 119.1 MHZ
Type ATIS Name ATIS Frequency 127.65 MHZ
Type GND Name GND Frequency 121.85 MHZ
Type OPS Name RECIFE OPS Frequency 122.5 MHZ
Type TWR Name RECIFE TWR Frequency 122.8 MHZ
Airport Navaids
Type VOR-DME Name Recife Frequency 116900 KHZ
Airport Weather Information & NOTAM
ADDS - METARS form results

(0125 UTC 26 February 2018)
 
METAR text: SBRF 260100Z 00000KT 9999 FEW023 BKN080 26/20 Q1013
Conditions at: SBRF (RECIFE/GUARARAPE, BR) observed 0100 UTC 26 February 2018
Temperature: 26.0°C (79°F)
Dewpoint: 20.0°C (68°F) [RH = 70%]
Pressure (altimeter): 29.91 inches Hg (1013.0 mb)
Winds: calm
Visibility: 6 or more miles (10+ km)
Ceiling: 8000 feet AGL
Clouds: few clouds at 2300 feet AGL
broken clouds at 8000 feet AGL
Weather: no significant weather observed at this time